Erkan-2 — TC6588 — position and weather

sailwx.info

Track history (hours):
 
Tides and Currents Weather Stations Pressure Air Temp Water Temp Dewpoint Dewpoint Depression Visibility Wind Speed Wind Dir Waves Ship Positions

Erkan-2

Last reported at 2018-Feb-21 13:36 UTC. Time now 2018-Feb-21 19:35 UTC.
Position N 36°52' E 030°43'.

Length 19 m.

Type: Passenger vessel. MMSI: 271041084.

Date/timePositionNaut miles runAvg speedWind from/ knotsBaromVisibWave heightAir tempDewpointWater temp
2018-Feb-21 13:36N 36°52' E 030°43'1 6.2
2018-Feb-21 13:30N 36°52' E 030°43'2 1.9
2018-Feb-21 12:34N 36°51' E 030°45'0 6.5
2018-Feb-21 12:30N 36°51' E 030°45'2 0.3
2018-Feb-21 06:28N 36°52' E 030°43'1 2.9
2018-Feb-21 06:00N 36°53' E 030°41'1 0.9
2018-Feb-21 05:18N 36°53' E 030°42'1 2.3
2018-Feb-21 04:59N 36°52' E 030°42'1 0.0
2018-Feb-20 14:57N 36°53' E 030°42'1 2.5
2018-Feb-20 14:30N 36°52' E 030°43'1 0.1
2018-Feb-20 05:18N 36°53' E 030°42'1 4.7
2018-Feb-20 05:00N 36°52' E 030°43'1 0.1
2018-Feb-19 13:48N 36°53' E 030°42'2 4.9
2018-Feb-19 13:29N 36°52' E 030°43'0 0.0
2018-Feb-18 15:52N 36°52' E 030°43'1 0.7
2018-Feb-18 13:59N 36°53' E 030°42'1 1.0
2018-Feb-18 13:29N 36°53' E 030°42'1 0.6
2018-Feb-18 12:32N 36°52' E 030°43'0 5.9
2018-Feb-18 12:30N 36°52' E 030°43'1 1.1
2018-Feb-18 11:17N 36°51' E 030°44'  
2018-Feb-15 12:53N 36°52' E 030°42'1 1.6
2018-Feb-15 12:30N 36°53' E 030°42'0 0.0
2018-Feb-14 14:12N 36°53' E 030°42'1 2.5
2018-Feb-14 13:55N 36°52' E 030°42'1 0.5
2018-Feb-14 11:54N 36°53' E 030°42'2 3.7
2018-Feb-14 11:22N 36°51' E 030°43'1 3.3
2018-Feb-14 10:59N 36°52' E 030°42'1 0.4
2018-Feb-14 09:16N 36°53' E 030°42'2 6.4
2018-Feb-14 09:00N 36°52' E 030°43'2 2.0
2018-Feb-14 08:09N 36°51' E 030°45'1 6.4
2018-Feb-14 07:59N 36°51' E 030°44'2 2.4
2018-Feb-14 07:01N 36°53' E 030°42'0 0.0
2018-Feb-14 06:43N 36°53' E 030°42'0 0.0
2018-Feb-13 13:03N 36°53' E 030°42'0 2.3
2018-Feb-13 12:59N 36°53' E 030°42'3 6.1
2018-Feb-13 12:28N 36°51' E 030°45'0 0.2
2018-Feb-13 11:51N 36°51' E 030°45'2 7.0
2018-Feb-13 11:29N 36°52' E 030°43'1 0.0
2018-Feb-12 13:41N 36°53' E 030°42'0 1.3
2018-Feb-12 13:29N 36°53' E 030°42'0 0.7
2018-Feb-12 13:00N 36°53' E 030°42'1 0.4
2018-Feb-12 11:35N 36°53' E 030°42'1 2.6
2018-Feb-12 11:21N 36°52' E 030°42'0 0.4
2018-Feb-12 11:00N 36°53' E 030°42'0 0.1
2018-Feb-12 06:31N 36°53' E 030°42'0 0.0
2018-Feb-12 06:13N 36°53' E 030°42'0 0.0
2018-Feb-12 05:55N 36°53' E 030°42'0 0.0
2018-Feb-12 05:25N 36°53' E 030°42'0 0.0
2018-Feb-12 04:55N 36°53' E 030°42'0 0.0
2018-Feb-12 04:19N 36°53' E 030°42'0 0.0
2018-Feb-12 03:55N 36°53' E 030°42'0 0.0
2018-Feb-12 03:25N 36°53' E 030°42'0 0.0
2018-Feb-12 02:37N 36°53' E 030°42'0 0.0
2018-Feb-12 01:31N 36°53' E 030°42'0 0.0
2018-Feb-12 01:25N 36°53' E 030°42'0 0.0
2018-Feb-12 00:43N 36°53' E 030°42'0 0.0
2018-Feb-12 00:19N 36°53' E 030°42'0 0.0
2018-Feb-11 23:49N 36°53' E 030°42'0 0.0
2018-Feb-11 22:25N 36°53' E 030°42'0 0.0
2018-Feb-11 21:55N 36°53' E 030°42'0 0.0
2018-Feb-11 21:25N 36°53' E 030°42'  
Track history (hours):
 
Tides and Currents Weather Stations Pressure Air Temp Water Temp Dewpoint Dewpoint Depression Visibility Wind Speed Wind Dir Waves Ship Positions

Erkan-2

Last reported at 2018-Feb-21 13:36 UTC. Time now 2018-Feb-21 19:35 UTC.
Position N 36°52' E 030°43'.

Length 19 m.

Type: Passenger vessel. MMSI: 271041084.

Date/timePositionNaut miles runAvg speedWind from/ knotsBaromVisibWave heightAir tempDewpointWater temp
2018-Feb-21 13:36N 36°52' E 030°43'1 6.2
2018-Feb-21 13:30N 36°52' E 030°43'2 1.9
2018-Feb-21 12:34N 36°51' E 030°45'0 6.5
2018-Feb-21 12:30N 36°51' E 030°45'2 0.3
2018-Feb-21 06:28N 36°52' E 030°43'1 2.9
2018-Feb-21 06:00N 36°53' E 030°41'1 0.9
2018-Feb-21 05:18N 36°53' E 030°42'1 2.3
2018-Feb-21 04:59N 36°52' E 030°42'1 0.0
2018-Feb-20 14:57N 36°53' E 030°42'1 2.5
2018-Feb-20 14:30N 36°52' E 030°43'1 0.1
2018-Feb-20 05:18N 36°53' E 030°42'1 4.7
2018-Feb-20 05:00N 36°52' E 030°43'1 0.1
2018-Feb-19 13:48N 36°53' E 030°42'2 4.9
2018-Feb-19 13:29N 36°52' E 030°43'0 0.0
2018-Feb-18 15:52N 36°52' E 030°43'1 0.7
2018-Feb-18 13:59N 36°53' E 030°42'1 1.0
2018-Feb-18 13:29N 36°53' E 030°42'1 0.6
2018-Feb-18 12:32N 36°52' E 030°43'0 5.9
2018-Feb-18 12:30N 36°52' E 030°43'1 1.1
2018-Feb-18 11:17N 36°51' E 030°44'  
2018-Feb-15 12:53N 36°52' E 030°42'1 1.6
2018-Feb-15 12:30N 36°53' E 030°42'0 0.0
2018-Feb-14 14:12N 36°53' E 030°42'1 2.5
2018-Feb-14 13:55N 36°52' E 030°42'1 0.5
2018-Feb-14 11:54N 36°53' E 030°42'2 3.7
2018-Feb-14 11:22N 36°51' E 030°43'1 3.3
2018-Feb-14 10:59N 36°52' E 030°42'1 0.4
2018-Feb-14 09:16N 36°53' E 030°42'2 6.4
2018-Feb-14 09:00N 36°52' E 030°43'2 2.0
2018-Feb-14 08:09N 36°51' E 030°45'1 6.4
2018-Feb-14 07:59N 36°51' E 030°44'2 2.4
2018-Feb-14 07:01N 36°53' E 030°42'0 0.0
2018-Feb-14 06:43N 36°53' E 030°42'0 0.0
2018-Feb-13 13:03N 36°53' E 030°42'0 2.3
2018-Feb-13 12:59N 36°53' E 030°42'3 6.1
2018-Feb-13 12:28N 36°51' E 030°45'0 0.2
2018-Feb-13 11:51N 36°51' E 030°45'2 7.0
2018-Feb-13 11:29N 36°52' E 030°43'1 0.0
2018-Feb-12 13:41N 36°53' E 030°42'0 1.3
2018-Feb-12 13:29N 36°53' E 030°42'0 0.7
2018-Feb-12 13:00N 36°53' E 030°42'1 0.4
2018-Feb-12 11:35N 36°53' E 030°42'1 2.6
2018-Feb-12 11:21N 36°52' E 030°42'0 0.4
2018-Feb-12 11:00N 36°53' E 030°42'0 0.1
2018-Feb-12 06:31N 36°53' E 030°42'0 0.0
2018-Feb-12 06:13N 36°53' E 030°42'0 0.0
2018-Feb-12 05:55N 36°53' E 030°42'0 0.0
2018-Feb-12 05:25N 36°53' E 030°42'0 0.0
2018-Feb-12 04:55N 36°53' E 030°42'0 0.0
2018-Feb-12 04:19N 36°53' E 030°42'0 0.0
2018-Feb-12 03:55N 36°53' E 030°42'0 0.0
2018-Feb-12 03:25N 36°53' E 030°42'0 0.0
2018-Feb-12 02:37N 36°53' E 030°42'0 0.0
2018-Feb-12 01:31N 36°53' E 030°42'0 0.0
2018-Feb-12 01:25N 36°53' E 030°42'0 0.0
2018-Feb-12 00:43N 36°53' E 030°42'0 0.0
2018-Feb-12 00:19N 36°53' E 030°42'0 0.0
2018-Feb-11 23:49N 36°53' E 030°42'0 0.0
2018-Feb-11 22:25N 36°53' E 030°42'0 0.0
2018-Feb-11 21:55N 36°53' E 030°42'0 0.0
2018-Feb-11 21:25N 36°53' E 030°42'  

Dump ship's entire track history